sensor_id;sensor_type;location;lat;lon;timestamp;pressure;altitude;pressure_sealevel;temperature;humidity
49843;BME280;55559;48.898;9.184;2023-02-16T00:00:30;99524.81;;;-0.12;100.00
49843;BME280;55559;48.898;9.184;2023-02-16T00:02:58;99527.22;;;-0.05;100.00
49843;BME280;55559;48.898;9.184;2023-02-16T00:05:28;99513.16;;;-0.01;100.00
49843;BME280;55559;48.898;9.184;2023-02-16T00:07:56;99509.94;;;-0.10;100.00
49843;BME280;55559;48.898;9.184;2023-02-16T00:10:25;99504.91;;;-0.16;100.00
49843;BME280;55559;48.898;9.184;2023-02-16T00:12:54;99519.97;;;-0.26;100.00
49843;BME280;55559;48.898;9.184;2023-02-16T00:15:39;99531.44;;;-0.30;100.00
49843;BME280;55559;48.898;9.184;2023-02-16T00:18:14;99533.00;;;-0.25;100.00
49843;BME280;55559;48.898;9.184;2023-02-16T00:20:42;99526.00;;;-0.24;100.00
49843;BME280;55559;48.898;9.184;2023-02-16T00:23:10;99534.84;;;-0.28;100.00
49843;BME280;55559;48.898;9.184;2023-02-16T00:25:37;99521.59;;;-0.22;100.00
49843;BME280;55559;48.898;9.184;2023-02-16T00:28:12;99533.84;;;-0.24;100.00
49843;BME280;55559;48.898;9.184;2023-02-16T00:30:43;99525.22;;;-0.26;100.00
49843;BME280;55559;48.898;9.184;2023-02-16T00:33:14;99519.94;;;-0.25;100.00
49843;BME280;55559;48.898;9.184;2023-02-16T00:35:42;99528.75;;;-0.29;100.00
49843;BME280;55559;48.898;9.184;2023-02-16T00:38:09;99527.22;;;-0.36;100.00
49843;BME280;55559;48.898;9.184;2023-02-16T00:40:38;99525.66;;;-0.43;100.00
49843;BME280;55559;48.898;9.184;2023-02-16T00:43:08;99522.44;;;-0.53;100.00
49843;BME280;55559;48.898;9.184;2023-02-16T00:45:37;99527.00;;;-0.61;100.00
49843;BME280;55559;48.898;9.184;2023-02-16T00:48:04;99527.03;;;-0.63;100.00
49843;BME280;55559;48.898;9.184;2023-02-16T00:50:33;99527.09;;;-0.64;100.00
49843;BME280;55559;48.898;9.184;2023-02-16T00:53:00;99527.09;;;-0.64;100.00
49843;BME280;55559;48.898;9.184;2023-02-16T00:55:31;99531.19;;;-0.54;100.00
49843;BME280;55559;48.898;9.184;2023-02-16T00:58:03;99538.03;;;-0.50;100.00
49843;BME280;55559;48.898;9.184;2023-02-16T01:00:34;99531.94;;;-0.49;100.00
49843;BME280;55559;48.898;9.184;2023-02-16T01:03:08;99529.47;;;-0.55;100.00
49843;BME280;55559;48.898;9.184;2023-02-16T01:05:36;99530.56;;;-0.64;100.00
49843;BME280;55559;48.898;9.184;2023-02-16T01:08:08;99536.56;;;-0.60;100.00
49843;BME280;55559;48.898;9.184;2023-02-16T01:10:53;99537.47;;;-0.61;100.00
49843;BME280;55559;48.898;9.184;2023-02-16T01:13:38;99530.53;;;-0.62;100.00
49843;BME280;55559;48.898;9.184;2023-02-16T01:16:12;99523.66;;;-0.66;100.00
49843;BME280;55559;48.898;9.184;2023-02-16T01:18:40;99523.72;;;-0.69;100.00
49843;BME280;55559;48.898;9.184;2023-02-16T01:21:08;99525.53;;;-0.71;100.00
49843;BME280;55559;48.898;9.184;2023-02-16T01:23:35;99520.94;;;-0.62;100.00
49843;BME280;55559;48.898;9.184;2023-02-16T01:26:04;99520.69;;;-0.52;100.00
49843;BME280;55559;48.898;9.184;2023-02-16T01:28:33;99516.78;;;-0.69;100.00
49843;BME280;55559;48.898;9.184;2023-02-16T01:31:02;99514.19;;;-0.70;100.00
49843;BME280;55559;48.898;9.184;2023-02-16T01:33:32;99514.16;;;-0.69;100.00
49843;BME280;55559;48.898;9.184;2023-02-16T01:35:59;99506.34;;;-0.69;100.00
49843;BME280;55559;48.898;9.184;2023-02-16T01:38:27;99508.88;;;-0.66;100.00
49843;BME280;55559;48.898;9.184;2023-02-16T01:41:02;99503.75;;;-0.70;100.00
49843;BME280;55559;48.898;9.184;2023-02-16T01:43:38;99509.72;;;-0.65;100.00
49843;BME280;55559;48.898;9.184;2023-02-16T01:46:12;99500.03;;;-0.62;100.00
49843;BME280;55559;48.898;9.184;2023-02-16T01:48:41;99497.53;;;-0.66;100.00
49843;BME280;55559;48.898;9.184;2023-02-16T01:51:14;99494.03;;;-0.65;100.00
49843;BME280;55559;48.898;9.184;2023-02-16T01:53:45;99493.03;;;-0.61;100.00
49843;BME280;55559;48.898;9.184;2023-02-16T01:56:28;99507.00;;;-0.61;100.00
49843;BME280;55559;48.898;9.184;2023-02-16T01:59:02;99499.09;;;-0.59;100.00
49843;BME280;55559;48.898;9.184;2023-02-16T02:01:47;99501.16;;;-0.70;100.00
49843;BME280;55559;48.898;9.184;2023-02-16T02:04:24;99499.56;;;-0.78;100.00
49843;BME280;55559;48.898;9.184;2023-02-16T02:07:16;99500.59;;;-0.83;100.00
49843;BME280;55559;48.898;9.184;2023-02-16T02:09:51;99497.13;;;-0.84;100.00
49843;BME280;55559;48.898;9.184;2023-02-16T02:12:27;99496.34;;;-0.87;100.00
49843;BME280;55559;48.898;9.184;2023-02-16T02:14:56;99502.72;;;-0.98;100.00
49843;BME280;55559;48.898;9.184;2023-02-16T02:17:24;99495.84;;;-1.02;100.00
49843;BME280;55559;48.898;9.184;2023-02-16T02:20:00;99488.00;;;-1.02;100.00
49843;BME280;55559;48.898;9.184;2023-02-16T02:23:17;99486.22;;;-1.00;100.00
49843;BME280;55559;48.898;9.184;2023-02-16T02:32:23;99487.00;;;-1.32;100.00
49843;BME280;55559;48.898;9.184;2023-02-16T02:35:00;99492.31;;;-1.35;100.00
49843;BME280;55559;48.898;9.184;2023-02-16T02:37:40;99482.03;;;-1.41;100.00
49843;BME280;55559;48.898;9.184;2023-02-16T02:40:16;99476.03;;;-1.45;100.00
49843;BME280;55559;48.898;9.184;2023-02-16T02:42:52;99471.72;;;-1.47;100.00
49843;BME280;55559;48.898;9.184;2023-02-16T02:45:27;99471.75;;;-1.49;100.00
49843;BME280;55559;48.898;9.184;2023-02-16T02:47:58;99467.47;;;-1.50;100.00
49843;BME280;55559;48.898;9.184;2023-02-16T02:50:42;99466.44;;;-1.44;100.00
49843;BME280;55559;48.898;9.184;2023-02-16T02:53:25;99460.19;;;-1.37;100.00
49843;BME280;55559;48.898;9.184;2023-02-16T02:55:52;99460.00;;;-1.29;100.00
49843;BME280;55559;48.898;9.184;2023-02-16T02:58:38;99462.34;;;-1.19;100.00
49843;BME280;55559;48.898;9.184;2023-02-16T03:01:25;99469.09;;;-1.12;100.00
49843;BME280;55559;48.898;9.184;2023-02-16T03:03:55;99468.47;;;-1.20;100.00
49843;BME280;55559;48.898;9.184;2023-02-16T03:06:26;99459.06;;;-1.27;100.00
49843;BME280;55559;48.898;9.184;2023-02-16T03:08:59;99466.13;;;-1.32;100.00
49843;BME280;55559;48.898;9.184;2023-02-16T03:11:28;99460.06;;;-1.33;100.00
49843;BME280;55559;48.898;9.184;2023-02-16T03:14:15;99465.94;;;-1.23;100.00
49843;BME280;55559;48.898;9.184;2023-02-16T03:16:45;99470.03;;;-1.13;100.00
49843;BME280;55559;48.898;9.184;2023-02-16T03:19:16;99459.59;;;-1.13;100.00
49843;BME280;55559;48.898;9.184;2023-02-16T03:22:02;99460.28;;;-1.06;100.00
49843;BME280;55559;48.898;9.184;2023-02-16T03:24:47;99468.22;;;-1.10;100.00
49843;BME280;55559;48.898;9.184;2023-02-16T03:27:35;99459.09;;;-0.94;100.00
49843;BME280;55559;48.898;9.184;2023-02-16T03:30:21;99474.72;;;-0.92;100.00
49843;BME280;55559;48.898;9.184;2023-02-16T03:32:51;99473.00;;;-0.94;100.00
49843;BME280;55559;48.898;9.184;2023-02-16T03:35:20;99476.38;;;-0.90;100.00
49843;BME280;55559;48.898;9.184;2023-02-16T03:37:48;99469.50;;;-0.92;100.00
49843;BME280;55559;48.898;9.184;2023-02-16T03:40:16;99470.69;;;-1.04;100.00
49843;BME280;55559;48.898;9.184;2023-02-16T03:43:06;99461.28;;;-1.12;100.00
49843;BME280;55559;48.898;9.184;2023-02-16T03:45:39;99463.31;;;-1.23;100.00
49843;BME280;55559;48.898;9.184;2023-02-16T03:48:08;99472.44;;;-1.41;100.00
49843;BME280;55559;48.898;9.184;2023-02-16T03:50:37;99462.16;;;-1.47;100.00
49843;BME280;55559;48.898;9.184;2023-02-16T03:53:04;99468.25;;;-1.46;100.00
49843;BME280;55559;48.898;9.184;2023-02-16T03:55:35;99475.19;;;-1.47;100.00
49843;BME280;55559;48.898;9.184;2023-02-16T03:58:03;99476.88;;;-1.44;100.00
49843;BME280;55559;48.898;9.184;2023-02-16T04:00:31;99483.22;;;-1.55;100.00
49843;BME280;55559;48.898;9.184;2023-02-16T04:02:59;99487.69;;;-1.60;100.00
49843;BME280;55559;48.898;9.184;2023-02-16T04:05:27;99485.19;;;-1.66;100.00
49843;BME280;55559;48.898;9.184;2023-02-16T04:07:56;99484.31;;;-1.65;100.00
49843;BME280;55559;48.898;9.184;2023-02-16T04:10:23;99476.44;;;-1.62;100.00
49843;BME280;55559;48.898;9.184;2023-02-16T04:12:51;99479.81;;;-1.58;100.00
49843;BME280;55559;48.898;9.184;2023-02-16T04:15:19;99472.00;;;-1.58;100.00
49843;BME280;55559;48.898;9.184;2023-02-16T04:17:47;99476.38;;;-1.60;100.00
49843;BME280;55559;48.898;9.184;2023-02-16T04:20:17;99471.13;;;-1.59;100.00
49843;BME280;55559;48.898;9.184;2023-02-16T04:22:45;99477.25;;;-1.60;100.00
49843;BME280;55559;48.898;9.184;2023-02-16T04:25:15;99481.41;;;-1.53;100.00
49843;BME280;55559;48.898;9.184;2023-02-16T04:27:43;99481.31;;;-1.48;100.00
49843;BME280;55559;48.898;9.184;2023-02-16T04:30:18;99481.28;;;-1.46;100.00
49843;BME280;55559;48.898;9.184;2023-02-16T04:32:46;99489.22;;;-1.51;100.00
49843;BME280;55559;48.898;9.184;2023-02-16T04:35:14;99486.59;;;-1.51;100.00
49843;BME280;55559;48.898;9.184;2023-02-16T04:37:42;99484.09;;;-1.56;100.00
49843;BME280;55559;48.898;9.184;2023-02-16T04:40:16;99485.91;;;-1.59;100.00
49843;BME280;55559;48.898;9.184;2023-02-16T04:42:44;99493.78;;;-1.61;100.00
49843;BME280;55559;48.898;9.184;2023-02-16T04:45:12;99490.28;;;-1.60;100.00
49843;BME280;55559;48.898;9.184;2023-02-16T04:47:40;99491.22;;;-1.64;100.00
49843;BME280;55559;48.898;9.184;2023-02-16T04:50:08;99487.72;;;-1.61;100.00
49843;BME280;55559;48.898;9.184;2023-02-16T04:52:38;99485.19;;;-1.66;100.00
49843;BME280;55559;48.898;9.184;2023-02-16T04:55:07;99489.78;;;-1.77;100.00
49843;BME280;55559;48.898;9.184;2023-02-16T04:57:37;99490.75;;;-1.81;100.00
49843;BME280;55559;48.898;9.184;2023-02-16T05:00:06;99489.22;;;-1.90;100.00
49843;BME280;55559;48.898;9.184;2023-02-16T05:02:34;99479.69;;;-1.93;100.00
49843;BME280;55559;48.898;9.184;2023-02-16T05:05:02;99493.53;;;-1.89;100.00
49843;BME280;55559;48.898;9.184;2023-02-16T05:07:29;99481.44;;;-1.92;100.00
49843;BME280;55559;48.898;9.184;2023-02-16T05:09:57;99477.09;;;-1.93;100.00
49843;BME280;55559;48.898;9.184;2023-02-16T05:12:24;99484.06;;;-1.93;100.00
49843;BME280;55559;48.898;9.184;2023-02-16T05:15:10;99487.44;;;-1.88;100.00
49843;BME280;55559;48.898;9.184;2023-02-16T05:17:37;99475.19;;;-1.84;100.00
49843;BME280;55559;48.898;9.184;2023-02-16T05:20:06;99484.72;;;-1.83;100.00
49843;BME280;55559;48.898;9.184;2023-02-16T05:22:33;99483.78;;;-1.81;100.00
49843;BME280;55559;48.898;9.184;2023-02-16T05:25:04;99490.69;;;-1.78;100.00
49843;BME280;55559;48.898;9.184;2023-02-16T05:27:32;99491.50;;;-1.76;100.00
49843;BME280;55559;48.898;9.184;2023-02-16T05:29:59;99488.84;;;-1.73;100.00
49843;BME280;55559;48.898;9.184;2023-02-16T05:32:28;99494.00;;;-1.70;100.00
49843;BME280;55559;48.898;9.184;2023-02-16T05:34:55;99490.34;;;-1.63;100.00
49843;BME280;55559;48.898;9.184;2023-02-16T05:37:23;99499.75;;;-1.56;100.00
49843;BME280;55559;48.898;9.184;2023-02-16T05:39:50;99498.94;;;-1.58;100.00
49843;BME280;55559;48.898;9.184;2023-02-16T05:42:18;99496.31;;;-1.58;100.00
49843;BME280;55559;48.898;9.184;2023-02-16T05:44:46;99486.66;;;-1.54;100.00
49843;BME280;55559;48.898;9.184;2023-02-16T05:47:13;99499.72;;;-1.54;100.00
49843;BME280;55559;48.898;9.184;2023-02-16T05:49:42;99508.50;;;-1.58;100.00
49843;BME280;55559;48.898;9.184;2023-02-16T05:52:10;99508.63;;;-1.64;100.00
49843;BME280;55559;48.898;9.184;2023-02-16T05:54:37;99509.00;;;-1.81;100.00
49843;BME280;55559;48.898;9.184;2023-02-16T05:57:05;99503.81;;;-1.81;100.00
49843;BME280;55559;48.898;9.184;2023-02-16T05:59:32;99506.41;;;-1.81;100.00
49843;BME280;55559;48.898;9.184;2023-02-16T06:02:00;99503.50;;;-1.69;100.00
49843;BME280;55559;48.898;9.184;2023-02-16T06:04:27;99506.94;;;-1.67;100.00
49843;BME280;55559;48.898;9.184;2023-02-16T06:06:58;99506.72;;;-1.56;100.00
49843;BME280;55559;48.898;9.184;2023-02-16T06:09:26;99512.00;;;-1.59;100.00
49843;BME280;55559;48.898;9.184;2023-02-16T06:11:53;99523.25;;;-1.57;100.00
49843;BME280;55559;48.898;9.184;2023-02-16T06:14:21;99525.88;;;-1.59;100.00
49843;BME280;55559;48.898;9.184;2023-02-16T06:16:49;99523.31;;;-1.60;100.00
49843;BME280;55559;48.898;9.184;2023-02-16T06:19:18;99529.22;;;-1.52;100.00
49843;BME280;55559;48.898;9.184;2023-02-16T06:21:46;99528.28;;;-1.48;100.00
49843;BME280;55559;48.898;9.184;2023-02-16T06:24:15;99525.78;;;-1.17;100.00
49843;BME280;55559;48.898;9.184;2023-02-16T06:26:43;99528.38;;;-1.17;100.00
49843;BME280;55559;48.898;9.184;2023-02-16T06:29:11;99535.31;;;-1.14;100.00
49843;BME280;55559;48.898;9.184;2023-02-16T06:31:38;99526.22;;;-0.98;100.00
49843;BME280;55559;48.898;9.184;2023-02-16T06:34:06;99524.63;;;-1.05;100.00
49843;BME280;55559;48.898;9.184;2023-02-16T06:36:33;99518.22;;;-0.91;100.00
49843;BME280;55559;48.898;9.184;2023-02-16T06:39:01;99515.75;;;-0.96;100.00
49843;BME280;55559;48.898;9.184;2023-02-16T06:41:29;99510.09;;;-0.79;100.00
49843;BME280;55559;48.898;9.184;2023-02-16T06:44:01;99516.03;;;-0.74;100.00
49843;BME280;55559;48.898;9.184;2023-02-16T06:46:28;99510.94;;;-0.79;100.00
49843;BME280;55559;48.898;9.184;2023-02-16T06:48:56;99514.31;;;-0.75;100.00
49843;BME280;55559;48.898;9.184;2023-02-16T06:51:24;99515.34;;;-0.81;100.00
49843;BME280;55559;48.898;9.184;2023-02-16T06:53:52;99518.03;;;-0.84;100.00
49843;BME280;55559;48.898;9.184;2023-02-16T06:56:19;99519.66;;;-0.80;100.00
49843;BME280;55559;48.898;9.184;2023-02-16T06:58:48;99529.94;;;-0.73;100.00
49843;BME280;55559;48.898;9.184;2023-02-16T07:01:16;99524.44;;;-0.63;100.00
49843;BME280;55559;48.898;9.184;2023-02-16T07:03:48;99524.34;;;-0.60;100.00
49843;BME280;55559;48.898;9.184;2023-02-16T07:06:16;99529.06;;;-0.40;100.00
49843;BME280;55559;48.898;9.184;2023-02-16T07:08:44;99529.94;;;-0.41;100.00
49843;BME280;55559;48.898;9.184;2023-02-16T07:11:12;99522.06;;;-0.39;100.00
49843;BME280;55559;48.898;9.184;2023-02-16T07:13:39;99516.78;;;-0.38;100.00
49843;BME280;55559;48.898;9.184;2023-02-16T07:16:08;99521.88;;;-0.31;100.00
49843;BME280;55559;48.898;9.184;2023-02-16T07:18:37;99516.47;;;-0.25;100.00
49843;BME280;55559;48.898;9.184;2023-02-16T07:21:05;99523.34;;;-0.23;100.00
49843;BME280;55559;48.898;9.184;2023-02-16T07:23:34;99521.59;;;-0.22;100.00
49843;BME280;55559;48.898;9.184;2023-02-16T07:26:02;99521.31;;;-0.11;100.00
49843;BME280;55559;48.898;9.184;2023-02-16T07:28:30;99525.56;;;-0.09;100.00
49843;BME280;55559;48.898;9.184;2023-02-16T07:30:57;99525.28;;;0.02;100.00
49843;BME280;55559;48.898;9.184;2023-02-16T07:33:26;99527.66;;;0.10;100.00
49843;BME280;55559;48.898;9.184;2023-02-16T07:35:54;99528.75;;;0.32;100.00
49843;BME280;55559;48.898;9.184;2023-02-16T07:38:21;99529.44;;;0.39;100.00
49843;BME280;55559;48.898;9.184;2023-02-16T07:40:49;99521.97;;;0.55;100.00
49843;BME280;55559;48.898;9.184;2023-02-16T07:43:17;99521.53;;;0.69;100.00
49843;BME280;55559;48.898;9.184;2023-02-16T07:45:44;99530.97;;;0.74;100.00
49843;BME280;55559;48.898;9.184;2023-02-16T07:48:12;99531.13;;;0.68;100.00
49843;BME280;55559;48.898;9.184;2023-02-16T07:50:41;99534.59;;;0.69;100.00
49843;BME280;55559;48.898;9.184;2023-02-16T07:53:11;99536.38;;;0.68;100.00
49843;BME280;55559;48.898;9.184;2023-02-16T07:55:40;99534.50;;;0.72;100.00
49843;BME280;55559;48.898;9.184;2023-02-16T07:58:07;99543.13;;;0.76;100.00
49843;BME280;55559;48.898;9.184;2023-02-16T08:00:35;99541.16;;;0.82;100.00
49843;BME280;55559;48.898;9.184;2023-02-16T08:03:03;99543.66;;;1.14;100.00
49843;BME280;55559;48.898;9.184;2023-02-16T08:05:32;99532.13;;;1.19;100.00
49843;BME280;55559;48.898;9.184;2023-02-16T08:08:01;99530.78;;;1.33;100.00
49843;BME280;55559;48.898;9.184;2023-02-16T08:10:29;99532.03;;;1.47;100.00
49843;BME280;55559;48.898;9.184;2023-02-16T08:12:57;99535.94;;;1.61;100.00
49843;BME280;55559;48.898;9.184;2023-02-16T08:15:24;99532.56;;;1.82;100.00
49843;BME280;55559;48.898;9.184;2023-02-16T08:17:52;99527.59;;;1.98;100.00
49843;BME280;55559;48.898;9.184;2023-02-16T08:20:19;99521.78;;;2.14;100.00
49843;BME280;55559;48.898;9.184;2023-02-16T08:22:47;99518.88;;;2.21;100.00
49843;BME280;55559;48.898;9.184;2023-02-16T08:25:16;99523.50;;;2.38;100.00
49843;BME280;55559;48.898;9.184;2023-02-16T08:27:44;99515.06;;;2.52;100.00
49843;BME280;55559;48.898;9.184;2023-02-16T08:30:12;99514.72;;;2.62;100.00
49843;BME280;55559;48.898;9.184;2023-02-16T08:32:43;99519.72;;;2.68;100.00
49843;BME280;55559;48.898;9.184;2023-02-16T08:35:11;99515.81;;;2.78;100.00
49843;BME280;55559;48.898;9.184;2023-02-16T08:37:38;99515.44;;;2.87;100.00
49843;BME280;55559;48.898;9.184;2023-02-16T08:40:08;99522.22;;;2.93;100.00
49843;BME280;55559;48.898;9.184;2023-02-16T08:42:37;99518.50;;;2.98;100.00
49843;BME280;55559;48.898;9.184;2023-02-16T08:45:05;99508.66;;;3.04;100.00
49843;BME280;55559;48.898;9.184;2023-02-16T08:47:33;99519.94;;;3.06;100.00
49843;BME280;55559;48.898;9.184;2023-02-16T08:50:01;99523.91;;;3.16;100.00
49843;BME280;55559;48.898;9.184;2023-02-16T08:52:29;99522.66;;;3.25;100.00
49843;BME280;55559;48.898;9.184;2023-02-16T08:54:56;99518.06;;;3.30;100.00
49843;BME280;55559;48.898;9.184;2023-02-16T08:57:24;99526.31;;;3.43;100.00
49843;BME280;55559;48.898;9.184;2023-02-16T08:59:52;99519.84;;;3.50;100.00
49843;BME280;55559;48.898;9.184;2023-02-16T09:02:34;99520.13;;;3.64;100.00
49843;BME280;55559;48.898;9.184;2023-02-16T09:05:02;99510.75;;;3.78;100.00
49843;BME280;55559;48.898;9.184;2023-02-16T09:07:29;99518.16;;;3.88;100.00
49843;BME280;55559;48.898;9.184;2023-02-16T09:10:00;99512.72;;;3.93;100.00
49843;BME280;55559;48.898;9.184;2023-02-16T09:12:27;99509.44;;;4.07;100.00
49843;BME280;55559;48.898;9.184;2023-02-16T09:14:57;99499.69;;;4.28;100.00
49843;BME280;55559;48.898;9.184;2023-02-16T09:17:24;99504.41;;;4.40;100.00
49843;BME280;55559;48.898;9.184;2023-02-16T09:19:53;99502.97;;;4.52;100.00
49843;BME280;55559;48.898;9.184;2023-02-16T09:22:20;99506.91;;;4.80;100.00
49843;BME280;55559;48.898;9.184;2023-02-16T09:24:48;99519.19;;;4.98;100.00
49843;BME280;55559;48.898;9.184;2023-02-16T09:27:16;99510.19;;;5.02;100.00
49843;BME280;55559;48.898;9.184;2023-02-16T09:29:45;99517.44;;;5.16;100.00
49843;BME280;55559;48.898;9.184;2023-02-16T09:32:13;99521.84;;;5.33;100.00
49843;BME280;55559;48.898;9.184;2023-02-16T09:34:42;99514.97;;;5.48;100.00
49843;BME280;55559;48.898;9.184;2023-02-16T09:37:11;99512.22;;;5.67;100.00
49843;BME280;55559;48.898;9.184;2023-02-16T09:39:39;99509.50;;;5.69;100.00
49843;BME280;55559;48.898;9.184;2023-02-16T09:42:18;99502.81;;;5.79;100.00
49843;BME280;55559;48.898;9.184;2023-02-16T09:44:56;99499.06;;;5.83;100.00
49843;BME280;55559;48.898;9.184;2023-02-16T09:47:30;99505.19;;;6.01;100.00
49843;BME280;55559;48.898;9.184;2023-02-16T09:50:02;99502.56;;;6.17;100.00
49843;BME280;55559;48.898;9.184;2023-02-16T09:52:35;99494.06;;;6.28;100.00
49843;BME280;55559;48.898;9.184;2023-02-16T09:55:09;99473.69;;;6.46;100.00
49843;BME280;55559;48.898;9.184;2023-02-16T09:57:45;99484.34;;;6.60;100.00
49843;BME280;55559;48.898;9.184;2023-02-16T10:00:28;99490.97;;;6.83;100.00
49843;BME280;55559;48.898;9.184;2023-02-16T10:03:09;99480.28;;;7.01;100.00
49843;BME280;55559;48.898;9.184;2023-02-16T10:05:44;99497.22;;;7.13;100.00
49843;BME280;55559;48.898;9.184;2023-02-16T10:08:15;99492.41;;;7.35;100.00
49843;BME280;55559;48.898;9.184;2023-02-16T10:10:52;99491.66;;;7.48;100.00
49843;BME280;55559;48.898;9.184;2023-02-16T10:13:26;99493.03;;;7.69;100.00
49843;BME280;55559;48.898;9.184;2023-02-16T10:16:00;99490.16;;;8.15;100.00
49843;BME280;55559;48.898;9.184;2023-02-16T10:18:36;99489.78;;;8.22;100.00
49843;BME280;55559;48.898;9.184;2023-02-16T10:21:08;99500.88;;;8.28;100.00
49843;BME280;55559;48.898;9.184;2023-02-16T10:23:44;99492.41;;;8.36;100.00
49843;BME280;55559;48.898;9.184;2023-02-16T10:26:15;99482.13;;;8.46;100.00
49843;BME280;55559;48.898;9.184;2023-02-16T10:28:46;99485.06;;;8.68;100.00
49843;BME280;55559;48.898;9.184;2023-02-16T10:31:19;99480.19;;;8.89;100.00
49843;BME280;55559;48.898;9.184;2023-02-16T10:34:00;99475.66;;;9.04;100.00
49843;BME280;55559;48.898;9.184;2023-02-16T10:36:39;99475.72;;;9.30;100.00
49843;BME280;55559;48.898;9.184;2023-02-16T10:39:15;99479.34;;;9.42;100.00
49843;BME280;55559;48.898;9.184;2023-02-16T10:41:48;99481.50;;;9.49;100.00
49843;BME280;55559;48.898;9.184;2023-02-16T10:44:20;99475.75;;;9.68;100.00
49843;BME280;55559;48.898;9.184;2023-02-16T10:46:55;99466.72;;;9.84;100.00
49843;BME280;55559;48.898;9.184;2023-02-16T10:49:25;99482.41;;;10.00;100.00
49843;BME280;55559;48.898;9.184;2023-02-16T10:51:54;99469.53;;;10.19;96.29
49843;BME280;55559;48.898;9.184;2023-02-16T10:54:26;99466.97;;;10.31;99.74
49843;BME280;55559;48.898;9.184;2023-02-16T10:56:55;99460.38;;;10.49;95.02
49843;BME280;55559;48.898;9.184;2023-02-16T10:59:30;99460.28;;;10.62;88.50
49843;BME280;55559;48.898;9.184;2023-02-16T11:02:02;99464.25;;;10.80;85.55
49843;BME280;55559;48.898;9.184;2023-02-16T11:04:40;99448.53;;;11.02;83.23
49843;BME280;55559;48.898;9.184;2023-02-16T11:07:09;99453.19;;;11.22;81.42
49843;BME280;55559;48.898;9.184;2023-02-16T11:09:38;99444.25;;;11.34;78.19
49843;BME280;55559;48.898;9.184;2023-02-16T11:12:23;99449.22;;;11.39;78.14
49843;BME280;55559;48.898;9.184;2023-02-16T11:14:54;99446.72;;;11.49;76.97
49843;BME280;55559;48.898;9.184;2023-02-16T11:17:22;99446.88;;;11.59;73.64
49843;BME280;55559;48.898;9.184;2023-02-16T11:19:53;99444.69;;;11.64;71.64
49843;BME280;55559;48.898;9.184;2023-02-16T11:22:31;99429.94;;;11.82;71.93
49843;BME280;55559;48.898;9.184;2023-02-16T11:25:26;99436.34;;;12.02;71.67
49843;BME280;55559;48.898;9.184;2023-02-16T11:27:56;99429.34;;;12.01;69.34
49843;BME280;55559;48.898;9.184;2023-02-16T11:30:30;99436.22;;;12.04;66.37
49843;BME280;55559;48.898;9.184;2023-02-16T11:33:00;99428.59;;;11.88;61.32
49843;BME280;55559;48.898;9.184;2023-02-16T11:35:31;99434.69;;;12.13;61.83
49843;BME280;55559;48.898;9.184;2023-02-16T11:38:24;99425.91;;;12.33;61.57
49843;BME280;55559;48.898;9.184;2023-02-16T11:40:52;99438.97;;;12.47;58.53
49843;BME280;55559;48.898;9.184;2023-02-16T11:43:20;99428.88;;;12.62;56.53
49843;BME280;55559;48.898;9.184;2023-02-16T11:45:57;99428.25;;;12.70;56.31
49843;BME280;55559;48.898;9.184;2023-02-16T11:48:27;99416.31;;;12.74;56.62
49843;BME280;55559;48.898;9.184;2023-02-16T11:50:59;99416.00;;;12.56;55.49
49843;BME280;55559;48.898;9.184;2023-02-16T11:53:29;99410.03;;;12.75;57.86
49843;BME280;55559;48.898;9.184;2023-02-16T11:56:20;99406.03;;;13.02;57.07
49843;BME280;55559;48.898;9.184;2023-02-16T11:59:04;99403.03;;;13.16;56.16
49843;BME280;55559;48.898;9.184;2023-02-16T12:01:45;99408.25;;;12.97;54.71
49843;BME280;55559;48.898;9.184;2023-02-16T12:04:22;99400.81;;;13.21;51.87
49843;BME280;55559;48.898;9.184;2023-02-16T12:07:04;99395.28;;;12.92;51.72
49843;BME280;55559;48.898;9.184;2023-02-16T12:09:46;99397.44;;;13.40;52.02
49843;BME280;55559;48.898;9.184;2023-02-16T12:12:18;99391.56;;;13.68;51.31
49843;BME280;55559;48.898;9.184;2023-02-16T12:14:58;99382.50;;;13.90;50.66
49843;BME280;55559;48.898;9.184;2023-02-16T12:17:42;99386.53;;;13.74;50.00
49843;BME280;55559;48.898;9.184;2023-02-16T12:20:27;99376.72;;;13.85;49.22
49843;BME280;55559;48.898;9.184;2023-02-16T12:23:06;99377.03;;;14.01;49.21
49843;BME280;55559;48.898;9.184;2023-02-16T12:25:41;99366.38;;;14.21;49.15
49843;BME280;55559;48.898;9.184;2023-02-16T12:28:15;99374.88;;;13.85;49.41
49843;BME280;55559;48.898;9.184;2023-02-16T12:30:53;99372.34;;;13.53;50.19
49843;BME280;55559;48.898;9.184;2023-02-16T12:33:37;99369.75;;;13.42;50.54
49843;BME280;55559;48.898;9.184;2023-02-16T12:36:42;99365.63;;;13.58;50.96
49843;BME280;55559;48.898;9.184;2023-02-16T12:39:18;99357.88;;;13.55;50.91
49843;BME280;55559;48.898;9.184;2023-02-16T12:42:02;99352.63;;;13.44;52.44
49843;BME280;55559;48.898;9.184;2023-02-16T12:44:34;99355.56;;;13.72;52.34
49843;BME280;55559;48.898;9.184;2023-02-16T12:47:03;99342.69;;;13.97;51.42
49843;BME280;55559;48.898;9.184;2023-02-16T12:49:44;99348.00;;;13.87;51.77
49843;BME280;55559;48.898;9.184;2023-02-16T12:52:29;99342.66;;;13.87;53.13
49843;BME280;55559;48.898;9.184;2023-02-16T12:55:15;99339.59;;;13.51;53.73
49843;BME280;55559;48.898;9.184;2023-02-16T12:57:50;99340.03;;;13.56;55.01
49843;BME280;55559;48.898;9.184;2023-02-16T13:00:23;99339.59;;;13.61;54.79
49843;BME280;55559;48.898;9.184;2023-02-16T13:02:52;99331.00;;;13.57;56.08
49843;BME280;55559;48.898;9.184;2023-02-16T13:05:24;99331.16;;;13.55;56.11
49843;BME280;55559;48.898;9.184;2023-02-16T13:07:59;99335.47;;;13.47;56.24
49843;BME280;55559;48.898;9.184;2023-02-16T13:10:34;99327.41;;;13.68;55.50
49843;BME280;55559;48.898;9.184;2023-02-16T13:13:08;99319.09;;;13.71;56.33
49843;BME280;55559;48.898;9.184;2023-02-16T13:15:39;99319.81;;;13.32;56.38
49843;BME280;55559;48.898;9.184;2023-02-16T13:18:13;99320.97;;;13.39;56.00
49843;BME280;55559;48.898;9.184;2023-02-16T13:20:48;99323.13;;;13.55;56.24
49843;BME280;55559;48.898;9.184;2023-02-16T13:23:24;99322.00;;;13.27;58.07
49843;BME280;55559;48.898;9.184;2023-02-16T13:26:23;99314.13;;;13.56;56.92